sensor_id;sensor_type;location;lat;lon;timestamp;P1;durP1;ratioP1;P2;durP2;ratioP2
21517;SDS011;61765;45.794;24.150;2022-12-18T00:05:22;43.17;;;23.67;;
21517;SDS011;61765;45.794;24.150;2022-12-18T00:13:30;47.72;;;25.15;;
21517;SDS011;61765;45.794;24.150;2022-12-18T00:21:36;45.10;;;26.02;;
21517;SDS011;61765;45.794;24.150;2022-12-18T00:29:45;48.50;;;25.08;;
21517;SDS011;61765;45.794;24.150;2022-12-18T00:37:50;46.85;;;24.38;;
21517;SDS011;61765;45.794;24.150;2022-12-18T00:46:00;44.22;;;24.50;;
21517;SDS011;61765;45.794;24.150;2022-12-18T00:54:06;47.35;;;24.90;;
21517;SDS011;61765;45.794;24.150;2022-12-18T01:02:15;45.10;;;24.15;;
21517;SDS011;61765;45.794;24.150;2022-12-18T01:10:20;50.40;;;27.15;;
21517;SDS011;61765;45.794;24.150;2022-12-18T01:18:29;51.25;;;26.52;;
21517;SDS011;61765;45.794;24.150;2022-12-18T01:26:34;49.38;;;26.40;;
21517;SDS011;61765;45.794;24.150;2022-12-18T01:34:42;53.65;;;27.77;;
21517;SDS011;61765;45.794;24.150;2022-12-18T01:42:49;59.95;;;28.42;;
21517;SDS011;61765;45.794;24.150;2022-12-18T01:51:00;56.78;;;30.40;;
21517;SDS011;61765;45.794;24.150;2022-12-18T01:59:06;59.50;;;29.77;;
21517;SDS011;61765;45.794;24.150;2022-12-18T02:07:19;61.17;;;31.58;;
21517;SDS011;61765;45.794;24.150;2022-12-18T02:15:37;60.13;;;31.50;;
21517;SDS011;61765;45.794;24.150;2022-12-18T02:23:50;56.28;;;29.58;;
21517;SDS011;61765;45.794;24.150;2022-12-18T02:32:08;60.10;;;28.70;;
21517;SDS011;61765;45.794;24.150;2022-12-18T02:40:17;57.78;;;30.08;;
21517;SDS011;61765;45.794;24.150;2022-12-18T02:48:27;53.03;;;26.45;;
21517;SDS011;61765;45.794;24.150;2022-12-18T02:56:35;51.38;;;25.95;;
21517;SDS011;61765;45.794;24.150;2022-12-18T03:04:46;51.40;;;26.55;;
21517;SDS011;61765;45.794;24.150;2022-12-18T03:12:57;48.72;;;25.60;;
21517;SDS011;61765;45.794;24.150;2022-12-18T03:21:10;51.58;;;24.85;;
21517;SDS011;61765;45.794;24.150;2022-12-18T03:29:18;48.90;;;23.58;;
21517;SDS011;61765;45.794;24.150;2022-12-18T03:37:32;53.10;;;25.42;;
21517;SDS011;61765;45.794;24.150;2022-12-18T03:45:41;46.13;;;23.38;;
21517;SDS011;61765;45.794;24.150;2022-12-18T03:53:55;46.50;;;23.42;;
21517;SDS011;61765;45.794;24.150;2022-12-18T04:02:06;47.63;;;23.70;;
21517;SDS011;61765;45.794;24.150;2022-12-18T04:10:16;46.55;;;23.27;;
21517;SDS011;61765;45.794;24.150;2022-12-18T04:18:22;48.58;;;24.00;;
21517;SDS011;61765;45.794;24.150;2022-12-18T04:26:32;47.40;;;23.33;;
21517;SDS011;61765;45.794;24.150;2022-12-18T04:34:47;49.97;;;25.00;;
21517;SDS011;61765;45.794;24.150;2022-12-18T04:42:55;48.92;;;24.75;;
21517;SDS011;61765;45.794;24.150;2022-12-18T04:51:00;45.53;;;22.70;;
21517;SDS011;61765;45.794;24.150;2022-12-18T04:59:08;41.72;;;21.70;;
21517;SDS011;61765;45.794;24.150;2022-12-18T05:07:13;46.90;;;21.98;;
21517;SDS011;61765;45.794;24.150;2022-12-18T05:15:21;44.85;;;22.92;;
21517;SDS011;61765;45.794;24.150;2022-12-18T05:23:27;49.78;;;23.45;;
21517;SDS011;61765;45.794;24.150;2022-12-18T05:31:37;47.15;;;23.65;;
21517;SDS011;61765;45.794;24.150;2022-12-18T05:39:44;40.30;;;20.20;;
21517;SDS011;61765;45.794;24.150;2022-12-18T05:47:52;49.22;;;23.75;;
21517;SDS011;61765;45.794;24.150;2022-12-18T05:55:59;47.53;;;22.60;;
21517;SDS011;61765;45.794;24.150;2022-12-18T06:04:08;45.10;;;21.25;;
21517;SDS011;61765;45.794;24.150;2022-12-18T06:12:14;43.38;;;21.38;;
21517;SDS011;61765;45.794;24.150;2022-12-18T06:20:22;41.03;;;20.65;;
21517;SDS011;61765;45.794;24.150;2022-12-18T06:28:33;41.05;;;21.20;;
21517;SDS011;61765;45.794;24.150;2022-12-18T06:36:41;36.47;;;18.85;;
21517;SDS011;61765;45.794;24.150;2022-12-18T06:44:47;40.50;;;19.58;;
21517;SDS011;61765;45.794;24.150;2022-12-18T06:52:55;36.33;;;18.83;;
21517;SDS011;61765;45.794;24.150;2022-12-18T07:01:00;34.22;;;16.65;;
21517;SDS011;61765;45.794;24.150;2022-12-18T07:09:09;34.92;;;18.27;;
21517;SDS011;61765;45.794;24.150;2022-12-18T07:17:14;37.20;;;17.85;;
21517;SDS011;61765;45.794;24.150;2022-12-18T07:25:23;37.50;;;19.00;;
21517;SDS011;61765;45.794;24.150;2022-12-18T07:33:30;28.83;;;14.95;;
21517;SDS011;61765;45.794;24.150;2022-12-18T07:41:38;30.70;;;15.80;;
21517;SDS011;61765;45.794;24.150;2022-12-18T07:49:50;28.20;;;14.88;;
21517;SDS011;61765;45.794;24.150;2022-12-18T07:57:59;33.28;;;15.32;;
21517;SDS011;61765;45.794;24.150;2022-12-18T08:06:06;39.60;;;19.90;;
21517;SDS011;61765;45.794;24.150;2022-12-18T08:14:15;41.33;;;20.13;;
21517;SDS011;61765;45.794;24.150;2022-12-18T08:22:21;34.33;;;17.92;;
21517;SDS011;61765;45.794;24.150;2022-12-18T08:30:29;34.88;;;18.50;;
21517;SDS011;61765;45.794;24.150;2022-12-18T08:38:35;35.13;;;18.50;;
21517;SDS011;61765;45.794;24.150;2022-12-18T08:46:45;39.22;;;20.13;;
21517;SDS011;61765;45.794;24.150;2022-12-18T08:54:50;39.50;;;19.23;;
21517;SDS011;61765;45.794;24.150;2022-12-18T09:02:58;41.00;;;20.35;;
21517;SDS011;61765;45.794;24.150;2022-12-18T09:11:04;38.08;;;20.42;;
21517;SDS011;61765;45.794;24.150;2022-12-18T09:19:18;40.95;;;22.02;;
21517;SDS011;61765;45.794;24.150;2022-12-18T09:27:26;33.35;;;17.63;;
21517;SDS011;61765;45.794;24.150;2022-12-18T09:35:34;36.00;;;19.13;;
21517;SDS011;61765;45.794;24.150;2022-12-18T09:43:41;42.05;;;22.33;;
21517;SDS011;61765;45.794;24.150;2022-12-18T09:51:55;41.58;;;21.80;;
21517;SDS011;61765;45.794;24.150;2022-12-18T10:00:08;45.17;;;24.23;;
21517;SDS011;61765;45.794;24.150;2022-12-18T10:08:24;67.05;;;32.30;;
21517;SDS011;61765;45.794;24.150;2022-12-18T10:16:41;49.65;;;25.20;;
21517;SDS011;61765;45.794;24.150;2022-12-18T10:24:57;47.78;;;23.17;;
21517;SDS011;61765;45.794;24.150;2022-12-18T10:33:08;42.85;;;21.70;;
21517;SDS011;61765;45.794;24.150;2022-12-18T10:41:26;44.72;;;23.10;;
21517;SDS011;61765;45.794;24.150;2022-12-18T10:49:32;41.75;;;22.42;;
21517;SDS011;61765;45.794;24.150;2022-12-18T10:57:42;51.90;;;22.52;;
21517;SDS011;61765;45.794;24.150;2022-12-18T11:05:48;40.38;;;21.88;;
21517;SDS011;61765;45.794;24.150;2022-12-18T11:14:12;39.42;;;20.00;;
21517;SDS011;61765;45.794;24.150;2022-12-18T11:22:21;39.40;;;21.25;;
21517;SDS011;61765;45.794;24.150;2022-12-18T11:30:32;42.60;;;21.10;;
21517;SDS011;61765;45.794;24.150;2022-12-18T11:38:40;47.55;;;22.13;;
21517;SDS011;61765;45.794;24.150;2022-12-18T11:46:51;43.20;;;23.55;;
21517;SDS011;61765;45.794;24.150;2022-12-18T11:55:07;45.50;;;22.55;;
21517;SDS011;61765;45.794;24.150;2022-12-18T12:03:27;47.55;;;23.05;;
21517;SDS011;61765;45.794;24.150;2022-12-18T12:11:58;37.50;;;19.73;;
21517;SDS011;61765;45.794;24.150;2022-12-18T12:20:19;43.88;;;21.10;;
21517;SDS011;61765;45.794;24.150;2022-12-18T12:28:47;45.15;;;21.55;;
21517;SDS011;61765;45.794;24.150;2022-12-18T12:37:08;42.30;;;21.50;;
21517;SDS011;61765;45.794;24.150;2022-12-18T12:45:22;38.00;;;21.25;;
21517;SDS011;61765;45.794;24.150;2022-12-18T12:53:41;43.13;;;21.60;;
21517;SDS011;61765;45.794;24.150;2022-12-18T13:01:49;44.40;;;22.67;;
21517;SDS011;61765;45.794;24.150;2022-12-18T13:10:25;43.90;;;23.08;;
21517;SDS011;61765;45.794;24.150;2022-12-18T13:18:36;44.13;;;21.75;;
21517;SDS011;61765;45.794;24.150;2022-12-18T13:26:45;42.88;;;22.38;;
21517;SDS011;61765;45.794;24.150;2022-12-18T13:43:45;30.33;;;15.65;;
21517;SDS011;61765;45.794;24.150;2022-12-18T13:51:52;33.33;;;16.92;;
21517;SDS011;61765;45.794;24.150;2022-12-18T14:00:17;32.47;;;17.35;;
21517;SDS011;61765;45.794;24.150;2022-12-18T14:08:32;38.60;;;18.02;;
21517;SDS011;61765;45.794;24.150;2022-12-18T14:16:45;38.33;;;18.17;;
21517;SDS011;61765;45.794;24.150;2022-12-18T14:25:04;67.20;;;27.27;;
21517;SDS011;61765;45.794;24.150;2022-12-18T14:33:21;39.53;;;19.67;;
21517;SDS011;61765;45.794;24.150;2022-12-18T14:41:27;37.67;;;19.10;;
21517;SDS011;61765;45.794;24.150;2022-12-18T14:49:37;42.58;;;20.67;;
21517;SDS011;61765;45.794;24.150;2022-12-18T14:57:48;35.33;;;17.73;;
21517;SDS011;61765;45.794;24.150;2022-12-18T15:05:58;31.83;;;16.80;;
21517;SDS011;61765;45.794;24.150;2022-12-18T15:14:22;39.60;;;19.80;;
21517;SDS011;61765;45.794;24.150;2022-12-18T15:22:33;43.95;;;21.05;;
21517;SDS011;61765;45.794;24.150;2022-12-18T15:30:41;44.33;;;21.48;;
21517;SDS011;61765;45.794;24.150;2022-12-18T15:39:12;41.38;;;19.08;;
21517;SDS011;61765;45.794;24.150;2022-12-18T15:47:20;36.97;;;19.17;;
21517;SDS011;61765;45.794;24.150;2022-12-18T15:55:30;31.35;;;16.70;;
21517;SDS011;61765;45.794;24.150;2022-12-18T16:03:54;35.75;;;19.17;;
21517;SDS011;61765;45.794;24.150;2022-12-18T16:12:03;39.58;;;20.00;;
21517;SDS011;61765;45.794;24.150;2022-12-18T16:20:11;30.35;;;17.10;;
21517;SDS011;61765;45.794;24.150;2022-12-18T16:28:20;36.40;;;17.88;;
21517;SDS011;61765;45.794;24.150;2022-12-18T16:36:25;28.10;;;15.50;;
21517;SDS011;61765;45.794;24.150;2022-12-18T16:44:34;24.10;;;13.18;;
21517;SDS011;61765;45.794;24.150;2022-12-18T16:52:40;27.40;;;14.70;;
21517;SDS011;61765;45.794;24.150;2022-12-18T17:00:48;27.38;;;13.85;;
21517;SDS011;61765;45.794;24.150;2022-12-18T17:08:54;24.52;;;12.88;;
21517;SDS011;61765;45.794;24.150;2022-12-18T17:17:03;24.77;;;13.23;;
21517;SDS011;61765;45.794;24.150;2022-12-18T17:25:22;31.38;;;16.42;;
21517;SDS011;61765;45.794;24.150;2022-12-18T17:33:30;27.42;;;13.82;;
21517;SDS011;61765;45.794;24.150;2022-12-18T17:41:36;25.90;;;14.88;;
21517;SDS011;61765;45.794;24.150;2022-12-18T17:49:44;30.20;;;15.05;;
21517;SDS011;61765;45.794;24.150;2022-12-18T17:57:49;32.53;;;15.43;;
21517;SDS011;61765;45.794;24.150;2022-12-18T18:05:57;27.42;;;14.45;;
21517;SDS011;61765;45.794;24.150;2022-12-18T18:14:05;32.17;;;17.23;;
21517;SDS011;61765;45.794;24.150;2022-12-18T18:22:17;29.48;;;14.93;;
21517;SDS011;61765;45.794;24.150;2022-12-18T18:30:24;32.13;;;17.15;;
21517;SDS011;61765;45.794;24.150;2022-12-18T18:38:34;30.48;;;15.60;;
21517;SDS011;61765;45.794;24.150;2022-12-18T18:46:39;32.35;;;16.75;;
21517;SDS011;61765;45.794;24.150;2022-12-18T18:54:48;36.45;;;17.50;;
21517;SDS011;61765;45.794;24.150;2022-12-18T19:03:13;35.03;;;16.55;;
21517;SDS011;61765;45.794;24.150;2022-12-18T19:11:25;33.67;;;16.15;;
21517;SDS011;61765;45.794;24.150;2022-12-18T19:19:55;32.42;;;16.05;;
21517;SDS011;61765;45.794;24.150;2022-12-18T19:28:03;29.02;;;14.80;;
21517;SDS011;61765;45.794;24.150;2022-12-18T19:36:23;28.15;;;14.93;;
21517;SDS011;61765;45.794;24.150;2022-12-18T19:44:35;25.75;;;13.98;;
21517;SDS011;61765;45.794;24.150;2022-12-18T19:52:41;27.95;;;13.95;;
21517;SDS011;61765;45.794;24.150;2022-12-18T20:00:50;33.33;;;15.35;;
21517;SDS011;61765;45.794;24.150;2022-12-18T20:08:57;29.15;;;14.73;;
21517;SDS011;61765;45.794;24.150;2022-12-18T20:17:07;39.30;;;20.08;;
21517;SDS011;61765;45.794;24.150;2022-12-18T20:25:21;29.92;;;16.52;;
21517;SDS011;61765;45.794;24.150;2022-12-18T20:33:31;29.05;;;15.70;;
21517;SDS011;61765;45.794;24.150;2022-12-18T20:41:52;39.05;;;18.88;;
21517;SDS011;61765;45.794;24.150;2022-12-18T20:50:01;38.05;;;19.08;;
21517;SDS011;61765;45.794;24.150;2022-12-18T20:58:09;41.42;;;20.30;;
21517;SDS011;61765;45.794;24.150;2022-12-18T21:06:21;35.20;;;18.63;;
21517;SDS011;61765;45.794;24.150;2022-12-18T21:14:31;32.30;;;17.17;;
21517;SDS011;61765;45.794;24.150;2022-12-18T21:22:39;38.88;;;19.25;;
21517;SDS011;61765;45.794;24.150;2022-12-18T21:30:45;34.75;;;18.10;;
21517;SDS011;61765;45.794;24.150;2022-12-18T21:38:54;54.95;;;26.92;;
21517;SDS011;61765;45.794;24.150;2022-12-18T21:47:00;54.08;;;25.70;;
21517;SDS011;61765;45.794;24.150;2022-12-18T21:55:25;47.03;;;22.47;;
21517;SDS011;61765;45.794;24.150;2022-12-18T22:03:31;39.60;;;19.25;;
21517;SDS011;61765;45.794;24.150;2022-12-18T22:11:39;34.92;;;16.77;;
21517;SDS011;61765;45.794;24.150;2022-12-18T22:19:45;34.35;;;16.08;;
21517;SDS011;61765;45.794;24.150;2022-12-18T22:27:53;34.10;;;16.23;;
21517;SDS011;61765;45.794;24.150;2022-12-18T22:36:11;33.65;;;15.80;;
21517;SDS011;61765;45.794;24.150;2022-12-18T22:44:21;35.63;;;17.38;;
21517;SDS011;61765;45.794;24.150;2022-12-18T22:52:26;58.63;;;28.00;;
21517;SDS011;61765;45.794;24.150;2022-12-18T23:00:34;61.85;;;28.83;;
21517;SDS011;61765;45.794;24.150;2022-12-18T23:08:40;50.30;;;23.90;;
21517;SDS011;61765;45.794;24.150;2022-12-18T23:16:48;41.95;;;20.92;;
21517;SDS011;61765;45.794;24.150;2022-12-18T23:24:53;42.97;;;20.00;;
21517;SDS011;61765;45.794;24.150;2022-12-18T23:33:01;40.92;;;19.98;;
21517;SDS011;61765;45.794;24.150;2022-12-18T23:41:07;40.53;;;20.23;;
21517;SDS011;61765;45.794;24.150;2022-12-18T23:49:16;39.08;;;18.85;;
21517;SDS011;61765;45.794;24.150;2022-12-18T23:57:22;42.40;;;19.13;;
